Time;durP1;ratioP1;P1;durP2;ratioP2;P2;SDS_P1;SDS_P2;PMS_P1;PMS_P2;Temp;Humidity;BMP_temperature;BMP_pressure;BME280_temperature;BME280_humidity;BME280_pressure;Samples;Min_cycle;Max_cycle;Signal;HPM_P1;HPM_P2
2023/07/27 00:02:06;;;;;;;4.65;3.92;;;;;;;13.98;69.56;100755.09;15615898;28;20171;-49
2023/07/27 00:09:40;;;;;;;7.85;3.83;;;;;;;13.83;70.17;100756.59;15617728;28;20095;-48
2023/07/27 00:17:14;;;;;;;6.32;4.30;;;;;;;14.09;69.10;100749.97;15618573;28;20042;-48
2023/07/27 00:24:51;;;;;;;4.68;3.75;;;;;;;13.94;68.89;100750.38;15599486;28;20041;-48
2023/07/27 00:32:27;;;;;;;6.32;4.40;;;;;;;13.73;69.33;100749.06;15617045;28;20587;-51
2023/07/27 00:40:02;;;;;;;5.00;4.50;;;;;;;13.90;68.70;100746.53;15598690;28;20200;-47
2023/07/27 00:47:36;;;;;;;4.80;4.20;;;;;;;13.77;69.43;100748.38;15597068;28;20044;-52
2023/07/27 00:55:10;;;;;;;6.25;5.05;;;;;;;13.52;70.21;100745.00;15612177;28;20041;-50
2023/07/27 01:02:52;;;;;;;6.05;4.40;;;;;;;13.50;69.86;100747.13;15612828;28;20281;-47
2023/07/27 01:10:37;;;;;;;6.27;4.83;;;;;;;13.71;68.84;100740.41;15589880;28;20141;-48
2023/07/27 01:18:16;;;;;;;5.47;4.85;;;;;;;13.49;69.64;100732.81;15593054;28;20053;-50
2023/07/27 01:26:19;;;;;;;5.93;5.32;;;;;;;13.64;69.29;100720.78;15595063;28;20072;-51
2023/07/27 01:34:00;;;;;;;6.97;5.28;;;;;;;13.63;68.36;100724.53;15595240;28;20128;-50
2023/07/27 01:41:37;;;;;;;6.83;5.47;;;;;;;13.41;68.86;100711.56;15588968;28;20056;-49
2023/07/27 01:49:14;;;;;;;7.13;5.57;;;;;;;13.39;69.08;100723.66;15609592;28;20045;-45
2023/07/27 01:56:48;;;;;;;7.10;5.90;;;;;;;12.57;72.26;100720.47;15610042;28;20044;-51
2023/07/27 02:04:24;;;;;;;7.50;5.95;;;;;;;12.69;71.02;100719.53;15608960;28;20045;-46
2023/07/27 02:12:12;;;;;;;8.50;6.38;;;;;;;12.74;70.72;100716.97;15605166;28;20037;-46
2023/07/27 02:19:52;;;;;;;7.28;6.07;;;;;;;13.00;70.28;100715.00;15591834;28;20073;-53
2023/07/27 02:27:25;;;;;;;8.18;6.72;;;;;;;12.82;71.15;100715.81;15576336;28;20069;-53
2023/07/27 02:34:59;;;;;;;9.30;7.18;;;;;;;12.88;70.88;100709.56;15592158;28;20045;-46
2023/07/27 02:42:33;;;;;;;8.20;7.13;;;;;;;13.03;70.07;100701.06;15574460;28;20046;-46
2023/07/27 02:50:09;;;;;;;9.35;6.82;;;;;;;12.90;70.14;100696.66;15542534;28;20087;-52
2023/07/27 02:57:58;;;;;;;10.65;6.45;;;;;;;12.85;70.82;100706.47;15588930;28;20121;-46
2023/07/27 03:05:37;;;;;;;10.45;7.90;;;;;;;12.38;71.80;100701.63;15587513;28;20045;-48
2023/07/27 03:13:10;;;;;;;12.05;7.70;;;;;;;12.66;71.13;100700.28;15606866;28;20463;-45
2023/07/27 03:20:45;;;;;;;9.60;7.95;;;;;;;12.41;72.25;100698.50;15590258;28;20078;-49
2023/07/27 03:28:18;;;;;;;12.45;7.60;;;;;;;12.62;71.09;100705.28;15590901;28;20397;-51
2023/07/27 03:35:53;;;;;;;8.30;7.38;;;;;;;12.69;70.82;100703.34;15585731;28;20084;-45
2023/07/27 03:43:27;;;;;;;9.60;7.07;;;;;;;12.83;70.71;100693.25;15601495;28;20037;-46
2023/07/27 03:51:02;;;;;;;10.10;7.63;;;;;;;12.74;70.49;100684.66;15583792;28;20049;-49
2023/07/27 03:58:36;;;;;;;10.05;8.68;;;;;;;12.56;71.77;100684.66;15583585;28;20045;-46
2023/07/27 04:06:10;;;;;;;9.95;8.43;;;;;;;12.59;71.87;100684.22;15589209;28;20045;-47
2023/07/27 04:13:43;;;;;;;9.40;8.13;;;;;;;12.43;72.58;100676.72;15614766;28;20163;-49
2023/07/27 04:21:18;;;;;;;11.03;8.63;;;;;;;12.66;72.89;100678.75;15591017;28;20049;-47
2023/07/27 04:28:51;;;;;;;10.95;9.30;;;;;;;12.58;73.96;100679.03;15615068;28;20314;-48
2023/07/27 04:36:25;;;;;;;10.52;9.07;;;;;;;12.06;76.17;100678.56;15598267;28;20590;-47
2023/07/27 04:43:58;;;;;;;10.18;8.95;;;;;;;12.35;75.54;100682.41;15595204;28;20037;-46
2023/07/27 04:51:32;;;;;;;11.10;8.50;;;;;;;12.82;74.23;100674.59;15596696;28;20196;-51
2023/07/27 04:59:09;;;;;;;10.70;8.13;;;;;;;13.43;72.21;100657.41;15614085;28;20605;-47
2023/07/27 05:06:43;;;;;;;9.40;7.30;;;;;;;13.18;73.36;100660.25;15581069;28;20136;-50
2023/07/27 05:14:16;;;;;;;9.27;6.90;;;;;;;13.36;72.37;100660.22;15615232;28;20498;-50
2023/07/27 05:21:50;;;;;;;10.40;6.73;;;;;;;13.78;71.22;100660.16;15614573;28;20128;-46
2023/07/27 05:29:23;;;;;;;8.57;6.10;;;;;;;14.52;69.41;100655.09;15602556;28;20292;-45
2023/07/27 05:36:57;;;;;;;7.80;5.97;;;;;;;14.56;68.86;100652.75;15549689;28;20479;-49
2023/07/27 05:44:29;;;;;;;8.50;5.78;;;;;;;15.28;66.44;100650.34;15572615;28;20042;-47
2023/07/27 05:52:07;;;;;;;8.05;5.10;;;;;;;15.42;65.38;100650.84;15611019;28;20053;-48
2023/07/27 05:59:39;;;;;;;5.78;4.90;;;;;;;15.57;64.21;100643.00;15612079;28;20096;-51
2023/07/27 06:07:13;;;;;;;7.47;4.70;;;;;;;15.72;63.79;100635.19;15612243;28;20547;-47
2023/07/27 06:14:46;;;;;;;8.98;5.05;;;;;;;15.90;64.11;100639.50;15611301;28;20077;-51
2023/07/27 06:22:21;;;;;;;6.57;4.55;;;;;;;16.31;62.91;100621.09;15589074;28;20049;-52
2023/07/27 06:29:53;;;;;;;6.75;4.38;;;;;;;15.94;63.77;100631.69;15605038;28;20502;-53
2023/07/27 06:37:28;;;;;;;5.13;3.97;;;;;;;15.72;63.08;100651.41;15590931;28;20084;-50
2023/07/27 06:45:02;;;;;;;5.95;3.95;;;;;;;15.97;63.50;100639.31;15588772;28;20048;-57
2023/07/27 06:52:36;;;;;;;7.07;3.80;;;;;;;16.33;61.27;100632.53;15568537;28;20091;-49
2023/07/27 07:00:10;;;;;;;6.38;3.90;;;;;;;17.29;60.48;100624.66;15600304;28;20057;-50
2023/07/27 07:07:44;;;;;;;7.72;3.67;;;;;;;17.88;59.11;100612.94;15590482;28;20147;-50
2023/07/27 07:15:21;;;;;;;5.20;3.58;;;;;;;17.70;58.71;100619.56;15620428;28;20045;-50
2023/07/27 07:22:55;;;;;;;;;;;;;;;17.83;57.68;100621.06;15594106;28;20107;-52
2023/07/27 07:30:29;;;;;;;6.22;3.17;;;;;;;17.16;60.17;100633.25;15613309;28;20047;-52
2023/07/27 07:38:03;;;;;;;7.10;3.50;;;;;;;17.01;62.25;100633.88;15600103;28;20123;-54
2023/07/27 07:45:36;;;;;;;7.40;4.03;;;;;;;17.03;61.29;100617.38;15613653;28;20490;-53
2023/07/27 07:53:10;;;;;;;6.75;4.03;;;;;;;17.05;62.40;100618.75;15618794;28;20362;-47
2023/07/27 08:00:45;;;;;;;6.70;3.90;;;;;;;17.22;62.43;100613.22;15618911;28;20486;-48
2023/07/27 08:08:19;;;;;;;6.85;4.28;;;;;;;17.18;62.07;100603.94;15600883;28;20053;-52
2023/07/27 08:15:53;;;;;;;6.35;3.72;;;;;;;16.91;64.64;100595.81;15570566;28;20080;-50
2023/07/27 08:23:28;;;;;;;6.90;4.15;;;;;;;17.00;64.69;100585.34;15555397;28;20046;-50
2023/07/27 08:31:02;;;;;;;5.65;4.00;;;;;;;17.27;64.07;100574.47;15556306;28;20052;-47
2023/07/27 08:38:36;;;;;;;4.88;4.00;;;;;;;16.79;64.59;100557.22;15538574;28;20506;-45
2023/07/27 08:46:11;;;;;;;5.85;4.25;;;;;;;16.90;64.30;100558.13;15555018;28;20034;-49
2023/07/27 08:53:45;;;;;;;7.38;4.68;;;;;;;16.66;65.59;100555.69;15606761;28;20046;-46
2023/07/27 09:01:19;;;;;;;7.03;4.40;;;;;;;16.31;66.56;100535.25;15614484;28;20417;-49
2023/07/27 09:08:53;;;;;;;7.05;4.65;;;;;;;16.20;66.52;100527.28;15559059;28;20056;-50
2023/07/27 09:16:27;;;;;;;5.63;4.35;;;;;;;16.18;67.53;100527.53;15611165;28;20503;-53
2023/07/27 09:24:01;;;;;;;6.35;4.32;;;;;;;16.18;68.21;100515.84;15608203;28;20517;-46
2023/07/27 09:31:36;;;;;;;7.72;4.78;;;;;;;16.75;66.80;100513.53;15588065;28;20045;-47
2023/07/27 09:39:10;;;;;;;6.35;4.03;;;;;;;16.93;65.91;100509.66;15602160;28;20053;-47
2023/07/27 09:46:44;;;;;;;6.97;3.53;;;;;;;17.59;61.36;100485.69;15607811;28;20132;-51
2023/07/27 09:54:21;;;;;;;7.03;3.53;;;;;;;17.83;61.48;100474.44;15604076;28;20064;-50
2023/07/27 10:01:54;;;;;;;5.63;3.30;;;;;;;18.60;58.55;100470.03;15600386;28;20442;-51
2023/07/27 10:09:28;;;;;;;5.03;3.05;;;;;;;18.44;57.76;100471.09;15567507;28;20140;-54
2023/07/27 10:17:03;;;;;;;5.07;3.25;;;;;;;18.93;57.01;100466.03;15579026;28;20076;-50
2023/07/27 10:24:48;;;;;;;4.13;2.90;;;;;;;19.16;56.60;100463.81;15593917;28;20562;-54
2023/07/27 10:32:22;;;;;;;4.05;3.15;;;;;;;19.20;56.30;100470.34;15591415;28;20114;-51
2023/07/27 10:39:56;;;;;;;7.07;3.03;;;;;;;19.27;57.21;100477.13;15600337;28;20037;-47
2023/07/27 10:47:32;;;;;;;7.10;3.33;;;;;;;19.20;57.23;100471.16;15585257;28;20488;-52
2023/07/27 10:55:08;;;;;;;5.55;3.05;;;;;;;19.31;57.54;100466.53;15600385;28;20586;-51
2023/07/27 11:02:43;;;;;;;7.30;3.35;;;;;;;18.91;59.81;100462.75;15591017;28;20060;-54
2023/07/27 11:10:17;;;;;;;6.38;3.67;;;;;;;19.49;59.72;100449.63;15599259;28;20494;-56
2023/07/27 11:17:53;;;;;;;4.00;3.40;;;;;;;19.57;59.32;100443.56;15608507;28;20046;-54
2023/07/27 11:25:31;;;;;;;8.73;4.20;;;;;;;20.00;58.37;100427.63;15576751;23;20065;-56
2023/07/27 11:33:06;;;;;;;6.20;3.92;;;;;;;20.20;59.93;100426.72;15553634;28;20141;-55
2023/07/27 11:40:44;;;;;;;7.07;3.60;;;;;;;20.43;58.86;100411.56;15554161;28;20073;-50
2023/07/27 11:48:17;;;;;;;5.72;3.42;;;;;;;20.64;60.36;100404.06;15554974;28;20042;-54
2023/07/27 11:55:52;;;;;;;6.32;3.70;;;;;;;20.58;59.69;100400.56;15559092;28;20042;-49
2023/07/27 12:03:25;;;;;;;6.47;3.75;;;;;;;20.15;61.22;100398.69;15536813;28;20544;-49
2023/07/27 12:11:00;;;;;;;8.10;3.70;;;;;;;20.68;60.95;100386.03;15535589;28;20602;-51
2023/07/27 12:18:34;;;;;;;6.53;3.83;;;;;;;19.52;59.58;100385.63;15548048;28;20057;-53
2023/07/27 12:26:09;;;;;;;6.43;3.95;;;;;;;19.20;60.70;100375.09;15490295;28;20055;-49
2023/07/27 12:33:42;;;;;;;6.07;4.18;;;;;;;19.53;62.10;100369.00;15502701;28;20069;-51
2023/07/27 12:41:16;;;;;;;;;;;;;;;19.31;63.38;100365.84;15513491;28;20445;-51
2023/07/27 12:48:50;;;;;;;9.30;4.35;;;;;;;19.62;63.60;100359.19;15536072;28;19921;-48
2023/07/27 12:56:24;;;;;;;8.63;4.40;;;;;;;18.82;66.69;100366.47;15521878;28;20034;-52
2023/07/27 13:04:12;;;;;;;7.97;4.80;;;;;;;18.89;67.81;100349.91;15553536;28;20069;-51
2023/07/27 13:11:47;;;;;;;6.15;4.38;;;;;;;19.02;66.61;100347.38;15517757;28;20490;-52
2023/07/27 13:19:20;;;;;;;5.30;3.80;;;;;;;19.04;64.81;100330.81;15559006;28;20477;-54
2023/07/27 13:26:54;;;;;;;;;;;;;;;19.06;63.40;100332.16;15558948;28;20521;-56
2023/07/27 13:34:30;;;;;;;6.63;3.75;;;;;;;19.23;64.38;100323.66;15558009;28;19922;-49
2023/07/27 13:42:04;;;;;;;5.47;3.95;;;;;;;19.20;64.94;100324.22;15557670;28;20041;-48
2023/07/27 13:49:37;;;;;;;6.05;4.25;;;;;;;19.37;63.53;100310.28;15536460;28;20035;-49
2023/07/27 13:57:11;;;;;;;;;;;;;;;19.23;63.56;100304.63;15523240;28;20053;-55
2023/07/27 14:04:51;;;;;;;5.15;3.50;;;;;;;18.82;62.98;100302.03;15526914;28;19929;-52
2023/07/27 14:12:29;;;;;;;4.53;3.13;;;;;;;18.34;63.95;100306.16;15509959;28;20133;-48
2023/07/27 14:20:08;;;;;;;5.30;3.03;;;;;;;17.95;65.99;100301.25;15511438;28;20049;-56
2023/07/27 14:27:45;;;;;;;5.30;2.90;;;;;;;18.31;64.37;100290.38;15529229;28;20038;-54
2023/07/27 14:35:17;;;;;;;3.53;2.88;;;;;;;18.31;63.95;100279.50;15517062;28;20108;-54
2023/07/27 14:42:53;;;;;;;5.20;2.90;;;;;;;18.48;63.78;100274.63;15510474;28;20053;-50
2023/07/27 14:50:28;;;;;;;5.25;2.90;;;;;;;18.38;63.76;100250.19;15524609;28;20170;-53
2023/07/27 14:58:02;;;;;;;5.32;3.03;;;;;;;18.30;64.73;100237.94;15524599;28;20391;-48
2023/07/27 15:05:36;;;;;;;5.32;3.13;;;;;;;17.97;66.97;100223.03;15540137;28;20050;-51
2023/07/27 15:13:10;;;;;;;;;;;;;;;18.04;69.30;100209.97;15534987;28;20045;-51
2023/07/27 15:20:43;;;;;;;7.57;3.72;;;;;;;18.22;68.96;100205.09;15551259;28;19921;-54
2023/07/27 15:28:17;;;;;;;5.82;3.80;;;;;;;18.39;69.18;100183.88;15545152;28;20038;-51
2023/07/27 15:35:51;;;;;;;8.23;4.75;;;;;;;17.76;71.43;100162.47;15542812;28;20482;-57
2023/07/27 15:43:25;;;;;;;7.28;4.80;;;;;;;16.80;75.74;100185.59;15608163;28;20067;-52
2023/07/27 15:51:03;;;;;;;9.73;5.63;;;;;;;16.82;77.61;100171.78;15609555;28;20580;-51
2023/07/27 15:58:38;;;;;;;7.22;5.45;;;;;;;17.21;75.65;100171.38;15626650;28;20099;-50
2023/07/27 16:06:11;;;;;;;9.85;6.13;;;;;;;17.58;74.51;100171.97;15625468;28;20502;-51
2023/07/27 16:13:46;;;;;;;6.38;5.25;;;;;;;16.89;76.68;100150.69;15594445;28;20643;-49
2023/07/27 16:21:19;;;;;;;7.18;5.70;;;;;;;16.73;78.88;100138.94;15544860;28;20050;-50
2023/07/27 16:28:53;;;;;;;7.25;4.63;;;;;;;16.42;78.64;100132.56;15544377;28;20049;-49
2023/07/27 16:36:26;;;;;;;6.18;4.32;;;;;;;16.46;78.93;100125.56;15562078;28;20125;-55
2023/07/27 16:44:00;;;;;;;6.75;5.40;;;;;;;16.66;79.18;100116.69;15560995;28;20061;-48
2023/07/27 16:51:34;;;;;;;6.82;4.68;;;;;;;16.81;77.62;100113.25;15542714;28;20050;-50
2023/07/27 16:59:08;;;;;;;5.22;4.68;;;;;;;16.71;77.52;100103.16;15560049;28;20562;-51
2023/07/27 17:06:41;;;;;;;6.28;4.57;;;;;;;16.59;78.36;100097.94;15542370;28;20124;-53
2023/07/27 17:14:15;;;;;;;8.35;4.93;;;;;;;16.47;79.08;100097.38;15525388;28;20038;-52
2023/07/27 17:21:49;;;;;;;6.70;4.70;;;;;;;16.41;79.02;100095.72;15517480;23;20096;-56
2023/07/27 17:29:23;;;;;;;;;;;;;;;16.29;79.50;100087.81;15558956;28;20050;-56
2023/07/27 17:36:56;;;;;;;5.70;5.10;;;;;;;16.57;78.52;100080.34;15541498;28;19928;-53
2023/07/27 17:44:30;;;;;;;6.30;5.20;;;;;;;16.58;79.41;100066.53;15540512;28;20084;-52
2023/07/27 17:52:03;;;;;;;7.32;4.95;;;;;;;16.55;78.98;100068.94;15556894;28;20038;-57
2023/07/27 17:59:37;;;;;;;6.40;5.50;;;;;;;16.69;78.62;100067.34;15556803;28;20046;-58
2023/07/27 18:07:10;;;;;;;7.88;5.72;;;;;;;16.78;78.69;100076.63;15540221;28;20074;-55
2023/07/27 18:14:44;;;;;;;6.40;5.80;;;;;;;16.48;79.34;100065.69;15556607;28;20053;-57
2023/07/27 18:22:17;;;;;;;5.85;5.25;;;;;;;16.20;80.41;100046.06;15555904;28;20080;-58
2023/07/27 18:29:53;;;;;;;5.90;5.30;;;;;;;16.30;80.19;100042.59;15537846;28;20588;-59
2023/07/27 18:37:26;;;;;;;6.63;5.68;;;;;;;16.77;78.88;100053.31;15538124;28;20050;-56
2023/07/27 18:45:00;;;;;;;;;;;;;;;16.35;80.03;100049.91;15555247;28;20061;-55
2023/07/27 18:52:34;;;;;;;5.60;5.10;;;;;;;16.26;80.24;100039.59;15554692;28;19933;-59
2023/07/27 19:00:10;;;;;;;7.63;6.03;;;;;;;16.79;78.75;100036.81;15552586;28;20038;-58
2023/07/27 19:07:43;;;;;;;7.05;5.88;;;;;;;16.60;79.59;100036.47;15541023;28;20529;-59
2023/07/27 19:15:17;;;;;;;6.85;5.75;;;;;;;16.97;78.17;100038.16;15553994;28;20049;-55
2023/07/27 19:22:50;;;;;;;6.60;5.72;;;;;;;16.54;80.28;100034.81;15548389;28;20046;-57
2023/07/27 19:30:24;;;;;;;7.60;6.72;;;;;;;16.65;79.91;100039.19;15536128;28;20360;-53
2023/07/27 19:37:57;;;;;;;9.55;6.45;;;;;;;16.74;79.16;100031.34;15552929;28;20046;-54
2023/07/27 19:45:31;;;;;;;9.15;6.95;;;;;;;17.18;78.12;100028.16;15553005;28;20046;-54
2023/07/27 19:53:04;;;;;;;8.65;6.93;;;;;;;17.02;78.20;100016.47;15512001;28;20496;-56
2023/07/27 20:00:38;;;;;;;7.75;6.57;;;;;;;17.15;78.31;100015.94;15549812;28;20065;-56
2023/07/27 20:08:11;;;;;;;7.93;6.70;;;;;;;16.89;78.58;99998.88;15551452;28;20103;-54
2023/07/27 20:15:45;;;;;;;9.48;7.50;;;;;;;17.21;77.91;99998.59;15554017;28;20050;-55
2023/07/27 20:23:18;;;;;;;8.75;7.85;;;;;;;17.33;77.87;100009.16;15543628;28;20521;-52
2023/07/27 20:30:52;;;;;;;9.13;8.23;;;;;;;17.32;77.97;100000.22;15511382;28;20140;-57
2023/07/27 20:38:25;;;;;;;8.73;7.93;;;;;;;17.49;76.53;99988.28;15543724;28;20381;-60
2023/07/27 20:46:01;;;;;;;8.60;7.55;;;;;;;16.72;80.18;99980.16;15539816;28;20054;-57
2023/07/27 20:53:35;;;;;;;8.10;7.32;;;;;;;16.87;79.66;99978.53;15559896;28;20084;-55
2023/07/27 21:01:12;;;;;;;8.77;7.88;;;;;;;17.04;79.67;99970.94;15559469;28;20045;-55
2023/07/27 21:08:45;;;;;;;8.48;7.32;;;;;;;17.03;79.91;99972.84;15559357;28;20049;-54
2023/07/27 21:16:19;;;;;;;9.32;7.55;;;;;;;17.29;78.51;99976.34;15539319;28;20056;-53
2023/07/27 21:23:52;;;;;;;8.45;7.63;;;;;;;16.62;81.47;99971.16;15544700;28;20058;-57
2023/07/27 21:31:32;;;;;;;8.48;7.57;;;;;;;17.02;80.73;99959.53;15559333;28;20057;-53
2023/07/27 21:39:05;;;;;;;8.60;7.65;;;;;;;16.99;80.77;99954.69;15557494;28;20065;-56
2023/07/27 21:46:43;;;;;;;14.85;8.70;;;;;;;16.99;80.76;99935.69;15556968;28;20096;-52
2023/07/27 21:54:16;;;;;;;9.60;7.60;;;;;;;16.93;80.76;99951.16;15539177;28;20096;-52
2023/07/27 22:01:52;;;;;;;7.85;7.07;;;;;;;16.94;81.13;99935.72;15555845;28;20061;-52
2023/07/27 22:09:24;;;;;;;8.73;7.43;;;;;;;17.29;79.94;99926.69;15555392;28;20467;-54
2023/07/27 22:17:00;;;;;;;6.97;6.38;;;;;;;17.38;80.04;99916.91;15515936;28;20496;-53
2023/07/27 22:24:35;;;;;;;6.97;6.28;;;;;;;17.45;79.84;99917.44;15548030;28;20418;-54
2023/07/27 22:32:11;;;;;;;6.68;6.07;;;;;;;17.25;80.61;99914.78;15555067;28;20120;-53
2023/07/27 22:39:43;;;;;;;5.47;4.95;;;;;;;17.34;79.79;99891.44;15555101;28;20041;-53
2023/07/27 22:47:20;;;;;;;8.50;5.20;;;;;;;17.29;79.80;99884.13;15537012;28;20045;-57
2023/07/27 22:54:53;;;;;;;5.45;4.40;;;;;;;16.70;82.55;99883.94;15553072;28;20057;-57
2023/07/27 23:02:29;;;;;;;5.15;4.65;;;;;;;17.15;81.64;99880.34;15552931;28;20049;-55
2023/07/27 23:10:02;;;;;;;4.68;4.28;;;;;;;16.85;82.52;99870.38;15552273;28;20480;-56
2023/07/27 23:17:36;;;;;;;4.30;3.90;;;;;;;17.35;80.87;99868.66;15551876;28;20050;-54
2023/07/27 23:25:10;;;;;;;6.55;4.85;;;;;;;17.07;81.90;99870.91;15553792;28;20104;-54
2023/07/27 23:32:45;;;;;;;6.10;5.50;;;;;;;17.03;82.07;99866.28;15553912;28;20045;-53
2023/07/27 23:40:18;;;;;;;6.20;5.60;;;;;;;17.21;81.48;99854.06;15553041;28;20038;-51
2023/07/27 23:47:52;;;;;;;;;;;;;;;17.43;80.56;99851.78;15538934;28;20120;-55
2023/07/27 23:55:25;;;;;;;6.30;5.70;;;;;;;17.08;81.39;99853.53;15564625;28;19921;-54
